Kadena Air Base

Airport
ICAO code: 
RODN
IATA Code: 
DNA
Summary
ICAO Region: 
APAC
Territory: 
Location: 
Kadena, Okinawa
Serving: 
Kadena
Elevation: 
146 ft
Coordinates: 
Aerial View: 
26° 21' 20.203" N, 127° 46' 3.479" E
Metar
Observation
RODN 030056Z AUTO 34010KT 10SM FEW050 20/09 A3009 RMK AO2 SLP197 T01970090 $
Station
Kadena Ab
Date/Time
2021-12-03 00:56:00
Wind direction
340°
Wind speed
10 kts
Lowest cloud amount
few clouds
Temperature
19.7°C
Dew point
9°C
Humidity
50%
Weather condition
n/a

Runways

Designator Length Width Surface Rops
05L/23R 3688 91 ASP Yes/Yes
05R/23L 3688 61 CON Yes/Yes
Airport map: 
Aerial View: 

SKYbrary Partners:

Safety knowledge contributed by: